createdAt,value
2023-05-21T00:02:00.347Z,100651.35
2023-05-21T00:04:29.861Z,100650.98
2023-05-21T00:07:01.329Z,100648.33
2023-05-21T00:09:29.772Z,100654.94
2023-05-21T00:11:58.174Z,100656.21
2023-05-21T00:14:27.070Z,100651.02
2023-05-21T00:16:55.489Z,100647.90
2023-05-21T00:19:23.991Z,100644.27
2023-05-21T00:21:52.931Z,100644.85
2023-05-21T00:24:21.418Z,100639.48
2023-05-21T00:26:49.817Z,100636.20
2023-05-21T00:29:18.309Z,100639.81
2023-05-21T00:31:46.921Z,100634.17
2023-05-21T00:34:15.391Z,100635.55
2023-05-21T00:36:45.990Z,100633.19
2023-05-21T00:39:14.555Z,100632.45
2023-05-21T00:41:43.306Z,100635.25
2023-05-21T00:44:14.312Z,100631.22
2023-05-21T00:46:44.389Z,100639.83
2023-05-21T00:49:13.819Z,100641.55
2023-05-21T00:51:45.231Z,100641.35
2023-05-21T00:54:13.739Z,100640.34
2023-05-21T00:56:42.568Z,100641.02
2023-05-21T00:59:11.072Z,100642.11
2023-05-21T01:01:39.808Z,100641.80
2023-05-21T01:04:08.185Z,100640.98
2023-05-21T01:06:37.863Z,100645.13
2023-05-21T01:09:07.332Z,100643.20
2023-05-21T01:11:46.700Z,100635.63
2023-05-21T01:14:16.964Z,100632.00
2023-05-21T01:16:49.660Z,100633.69
2023-05-21T01:19:26.549Z,100631.48
2023-05-21T01:22:05.141Z,100627.33
2023-05-21T01:24:34.927Z,100621.73
2023-05-21T01:27:07.617Z,100624.58
2023-05-21T01:29:36.318Z,100627.42
2023-05-21T01:32:09.991Z,100624.10
2023-05-21T01:35:04.545Z,100622.84
2023-05-21T01:37:44.633Z,100620.02
2023-05-21T01:40:53.501Z,100617.19
2023-05-21T01:43:22.803Z,100625.84
2023-05-21T01:45:55.871Z,100619.96
2023-05-21T01:48:28.078Z,100619.56
2023-05-21T01:51:02.228Z,100615.72
2023-05-21T01:53:30.930Z,100615.15
2023-05-21T01:55:59.455Z,100611.25
2023-05-21T01:58:27.914Z,100613.75
2023-05-21T02:00:57.059Z,100616.84
2023-05-21T02:03:31.257Z,100617.85
2023-05-21T02:05:59.877Z,100618.58
2023-05-21T02:08:28.316Z,100618.41
2023-05-21T02:10:56.832Z,100616.11
2023-05-21T02:13:26.859Z,100616.19
2023-05-21T02:15:56.343Z,100614.29
2023-05-21T02:18:26.390Z,100612.33
2023-05-21T02:20:54.842Z,100608.01
2023-05-21T02:23:23.324Z,100609.98
2023-05-21T02:25:51.936Z,100612.43
2023-05-21T02:28:21.410Z,100611.56
2023-05-21T02:30:49.919Z,100614.43
2023-05-21T02:33:20.232Z,100614.02
2023-05-21T02:35:48.775Z,100616.32
2023-05-21T02:38:19.581Z,100612.81
2023-05-21T02:40:48.038Z,100614.52
2023-05-21T02:43:16.794Z,100610.71
2023-05-21T02:45:47.039Z,100606.58
2023-05-21T02:48:16.259Z,100608.74
2023-05-21T02:50:44.736Z,100607.55
2023-05-21T02:53:13.117Z,100606.77
2023-05-21T02:55:42.257Z,100606.17
2023-05-21T02:58:13.547Z,100606.45
2023-05-21T03:00:41.964Z,100607.77
2023-05-21T03:03:11.739Z,100606.56
2023-05-21T03:05:40.442Z,100605.89
2023-05-21T03:08:09.688Z,100603.15
2023-05-21T03:10:38.214Z,100598.27
2023-05-21T03:13:09.537Z,100596.91
2023-05-21T03:15:39.456Z,100601.08
2023-05-21T03:18:08.277Z,100600.86
2023-05-21T03:20:37.369Z,100607.02
2023-05-21T03:23:05.807Z,100605.27
2023-05-21T03:25:34.640Z,100603.23
2023-05-21T03:28:03.217Z,100602.80
2023-05-21T03:30:31.609Z,100602.75
2023-05-21T03:33:00.238Z,100603.05
2023-05-21T03:35:28.737Z,100602.20
2023-05-21T03:37:57.145Z,100598.63
2023-05-21T03:40:25.813Z,100601.49
2023-05-21T03:42:54.199Z,100601.88
2023-05-21T03:45:22.649Z,100607.13
2023-05-21T03:47:51.212Z,100607.14
2023-05-21T03:50:19.658Z,100602.58
2023-05-21T03:52:48.060Z,100604.30
2023-05-21T03:55:16.493Z,100596.23
2023-05-21T03:57:46.541Z,100599.05
2023-05-21T04:00:15.354Z,100602.85
2023-05-21T04:02:43.959Z,100605.59
2023-05-21T04:05:12.464Z,100611.05
2023-05-21T04:07:40.989Z,100607.85
2023-05-21T04:10:09.549Z,100607.42
2023-05-21T04:12:37.978Z,100605.41
2023-05-21T04:15:07.305Z,100606.27
2023-05-21T04:17:37.965Z,100604.31
2023-05-21T04:20:07.681Z,100602.47
2023-05-21T04:22:36.195Z,100601.66
2023-05-21T04:25:05.208Z,100604.55
2023-05-21T04:27:34.696Z,100600.37
2023-05-21T04:30:05.048Z,100599.48
2023-05-21T04:32:35.022Z,100602.98
2023-05-21T04:35:04.495Z,100598.73
2023-05-21T04:37:35.349Z,100600.45
2023-05-21T04:40:04.354Z,100600.66
2023-05-21T04:42:33.180Z,100603.64
2023-05-21T04:45:02.154Z,100602.09
2023-05-21T04:47:30.589Z,100603.30
2023-05-21T04:49:59.515Z,100598.54
2023-05-21T04:52:27.969Z,100598.10
2023-05-21T04:54:57.301Z,100596.42
2023-05-21T04:57:25.862Z,100594.37
2023-05-21T04:59:54.267Z,100596.27
2023-05-21T05:02:22.739Z,100596.48
2023-05-21T05:04:51.169Z,100598.48
2023-05-21T05:07:19.537Z,100594.24
2023-05-21T05:09:48.000Z,100598.63
2023-05-21T05:12:16.391Z,100600.77
2023-05-21T05:14:44.754Z,100604.07
2023-05-21T05:17:16.408Z,100604.67
2023-05-21T05:19:44.805Z,100607.29
2023-05-21T05:22:13.696Z,100608.70
2023-05-21T05:24:42.170Z,100605.80
2023-05-21T05:27:10.649Z,100601.12
2023-05-21T05:29:39.227Z,100595.09
2023-05-21T05:32:08.096Z,100592.02
2023-05-21T05:34:38.109Z,100593.30
2023-05-21T05:37:06.883Z,100593.20
2023-05-21T05:39:35.487Z,100593.52
2023-05-21T05:42:04.224Z,100588.08
2023-05-21T05:44:32.668Z,100589.38
2023-05-21T05:47:01.054Z,100588.39
2023-05-21T05:49:29.387Z,100592.67
2023-05-21T05:51:57.829Z,100591.42
2023-05-21T05:54:26.226Z,100589.52
2023-05-21T05:56:54.570Z,100586.98
2023-05-21T05:59:22.940Z,100591.33
2023-05-21T06:09:18.341Z,100584.63
2023-05-21T06:11:46.718Z,100580.36
2023-05-21T06:14:15.228Z,100580.00
2023-05-21T06:16:43.598Z,100575.14
2023-05-21T06:19:12.043Z,100576.92
2023-05-21T06:21:40.677Z,100577.06
2023-05-21T06:24:09.309Z,100574.32
2023-05-21T06:26:37.696Z,100575.27
2023-05-21T06:29:06.408Z,100573.09
2023-05-21T06:31:35.261Z,100574.52
2023-05-21T06:34:04.250Z,100570.50
2023-05-21T06:36:32.768Z,100568.84
2023-05-21T06:39:01.341Z,100567.38
2023-05-21T06:41:29.863Z,100567.23
2023-05-21T06:43:58.326Z,100570.06
2023-05-21T06:46:26.830Z,100572.90
2023-05-21T06:48:55.536Z,100566.98
2023-05-21T06:51:24.057Z,100568.44
2023-05-21T06:53:53.188Z,100572.13
2023-05-21T06:56:22.146Z,100570.52
2023-05-21T06:58:50.514Z,100568.67
2023-05-21T07:01:19.277Z,100565.80
2023-05-21T07:03:48.768Z,100562.91
2023-05-21T07:06:17.289Z,100560.38
2023-05-21T07:08:46.090Z,100559.55
2023-05-21T07:11:14.835Z,100558.00
2023-05-21T07:13:43.360Z,100558.30
2023-05-21T07:16:11.810Z,100558.33
2023-05-21T07:18:40.314Z,100555.84
2023-05-21T07:21:08.734Z,100562.41
2023-05-21T07:23:37.265Z,100557.11
2023-05-21T07:26:05.848Z,100555.18
2023-05-21T07:28:34.293Z,100557.13
2023-05-21T07:31:03.077Z,100557.47
2023-05-21T07:33:31.609Z,100557.99
2023-05-21T07:36:00.151Z,100555.23
2023-05-21T07:38:28.597Z,100555.48
2023-05-21T07:40:57.470Z,100555.59
2023-05-21T07:43:26.266Z,100553.34
2023-05-21T07:45:54.892Z,100550.75
2023-05-21T07:48:23.440Z,100547.48
2023-05-21T07:50:52.787Z,100547.55
2023-05-21T07:53:21.226Z,100548.04
2023-05-21T07:55:51.351Z,100549.39
2023-05-21T07:58:20.297Z,100548.88
2023-05-21T08:00:48.892Z,100546.42
2023-05-21T08:03:18.727Z,100545.88
2023-05-21T08:05:50.776Z,100547.24
2023-05-21T08:08:22.080Z,100543.61
2023-05-21T08:10:50.704Z,100541.33
2023-05-21T08:13:19.279Z,100539.35
2023-05-21T08:15:51.248Z,100536.83
2023-05-21T08:18:23.909Z,100532.82
2023-05-21T08:20:52.470Z,100535.91
2023-05-21T08:23:21.221Z,100539.45
2023-05-21T08:25:49.871Z,100541.55
2023-05-21T08:28:18.428Z,100541.30
2023-05-21T08:30:46.891Z,100539.88
2023-05-21T08:33:15.587Z,100536.30
2023-05-21T08:35:44.019Z,100540.96
2023-05-21T08:38:12.372Z,100540.06
2023-05-21T08:40:41.597Z,100539.35
2023-05-21T08:43:14.561Z,100542.83
2023-05-21T08:45:53.221Z,100540.41
2023-05-21T08:48:24.150Z,100535.55
2023-05-21T08:50:55.104Z,100533.52
2023-05-21T08:57:07.734Z,100529.36
2023-05-21T09:03:03.117Z,100524.18
2023-05-21T09:17:15.405Z,100525.61
2023-05-21T09:20:37.970Z,100525.13
2023-05-21T09:23:12.564Z,100522.22
2023-05-21T09:25:42.112Z,100520.59
2023-05-21T09:28:19.956Z,100518.23
2023-05-21T09:44:57.993Z,100510.27
2023-05-21T09:51:58.967Z,100508.71
2023-05-21T09:54:33.530Z,100510.24
2023-05-21T09:57:04.902Z,100505.52
2023-05-21T09:59:38.997Z,100499.86
2023-05-21T10:02:21.852Z,100497.97
2023-05-21T10:04:53.033Z,100496.81
2023-05-21T10:07:26.417Z,100497.51
2023-05-21T10:09:57.920Z,100488.77
2023-05-21T10:12:29.077Z,100484.04
2023-05-21T10:15:03.837Z,100489.87
2023-05-21T10:17:32.733Z,100492.76
2023-05-21T10:20:05.016Z,100489.16
2023-05-21T10:22:34.494Z,100483.87
2023-05-21T10:25:03.897Z,100480.83
2023-05-21T10:27:34.702Z,100482.29
2023-05-21T10:30:06.348Z,100480.64
2023-05-21T10:32:35.498Z,100479.73
2023-05-21T10:35:04.474Z,100480.52
2023-05-21T10:37:32.877Z,100478.98
2023-05-21T10:40:02.427Z,100470.89
2023-05-21T10:42:30.817Z,100472.30
2023-05-21T10:45:48.675Z,100470.21
2023-05-21T10:48:41.531Z,100463.95
2023-05-21T10:51:23.333Z,100467.29
2023-05-21T10:54:32.580Z,100462.11
2023-05-21T10:57:14.967Z,100458.80
2023-05-21T10:59:47.203Z,100453.80
2023-05-21T11:02:17.868Z,100454.53
2023-05-21T11:04:58.985Z,100458.96
2023-05-21T11:08:22.342Z,100455.14
2023-05-21T11:10:55.372Z,100454.60
2023-05-21T11:13:46.291Z,100454.88
2023-05-21T11:16:16.694Z,100454.05
2023-05-21T11:18:45.130Z,100448.20
2023-05-21T11:21:18.772Z,100449.91
2023-05-21T11:24:20.508Z,100450.50
2023-05-21T11:26:48.931Z,100447.39
2023-05-21T11:29:18.257Z,100446.45
2023-05-21T11:31:48.915Z,100447.02
2023-05-21T11:34:28.586Z,100447.77
2023-05-21T11:37:21.012Z,100438.99
2023-05-21T11:39:51.315Z,100441.20
2023-05-21T11:42:34.171Z,100436.95
2023-05-21T11:45:04.345Z,100431.09
2023-05-21T11:47:33.065Z,100428.88
2023-05-21T11:50:04.236Z,100428.60
2023-05-21T11:52:35.779Z,100428.98
2023-05-21T11:55:04.706Z,100428.07
2023-05-21T11:57:33.293Z,100428.48
2023-05-21T12:00:08.619Z,100427.30
2023-05-21T12:02:37.546Z,100424.47
2023-05-21T12:05:07.262Z,100423.11
2023-05-21T12:07:35.830Z,100422.03
2023-05-21T12:10:04.633Z,100422.62
2023-05-21T12:12:50.000Z,100421.09
2023-05-21T12:15:17.992Z,100419.27
2023-05-21T12:17:51.135Z,100416.22
2023-05-21T12:20:20.033Z,100412.83
2023-05-21T12:22:50.332Z,100416.09
2023-05-21T12:25:21.300Z,100417.75
2023-05-21T12:27:52.833Z,100412.60
2023-05-21T12:30:21.502Z,100415.05
2023-05-21T12:32:51.223Z,100415.48
2023-05-21T12:35:25.305Z,100420.48
2023-05-21T12:37:53.919Z,100415.67
2023-05-21T12:44:13.493Z,100411.46
2023-05-21T12:46:43.008Z,100410.57
2023-05-21T12:49:53.487Z,100413.20
2023-05-21T12:52:24.672Z,100412.77
2023-05-21T12:54:57.924Z,100412.20
2023-05-21T12:57:39.232Z,100408.21
2023-05-21T13:00:19.985Z,100412.08
2023-05-21T13:02:48.652Z,100411.83
2023-05-21T13:05:18.701Z,100409.41
2023-05-21T13:07:47.887Z,100405.42
2023-05-21T13:10:16.946Z,100403.55
2023-05-21T13:12:46.059Z,100401.23
2023-05-21T13:15:15.199Z,100406.30
2023-05-21T13:17:44.380Z,100403.41
2023-05-21T13:20:20.677Z,100397.16
2023-05-21T13:22:52.102Z,100398.98
2023-05-21T13:25:25.328Z,100401.98
2023-05-21T13:27:54.929Z,100401.55
2023-05-21T13:30:33.396Z,100401.61
2023-05-21T13:33:03.889Z,100399.19
2023-05-21T13:35:32.734Z,100400.11
2023-05-21T13:38:21.371Z,100402.41
2023-05-21T13:40:49.954Z,100399.99
2023-05-21T13:43:20.302Z,100391.95
2023-05-21T13:45:49.827Z,100393.08
2023-05-21T13:48:18.546Z,100393.19
2023-05-21T13:50:53.381Z,100391.19
2023-05-21T13:53:22.638Z,100389.63
2023-05-21T13:55:51.289Z,100389.29
2023-05-21T13:58:19.718Z,100387.70
2023-05-21T14:00:48.207Z,100389.42
2023-05-21T14:03:16.777Z,100392.58
2023-05-21T14:05:45.865Z,100389.46
2023-05-21T14:08:16.659Z,100390.09
2023-05-21T14:10:45.004Z,100389.91
2023-05-21T14:13:19.422Z,100390.63
2023-05-21T14:15:48.637Z,100392.79
2023-05-21T14:18:17.090Z,100391.85
2023-05-21T14:20:45.562Z,100387.70
2023-05-21T14:23:15.297Z,100388.88
2023-05-21T14:25:43.735Z,100391.11
2023-05-21T14:28:12.281Z,100388.77
2023-05-21T14:30:40.699Z,100384.93
2023-05-21T14:33:09.174Z,100386.40
2023-05-21T14:35:37.924Z,100381.47
2023-05-21T14:38:06.579Z,100375.50
2023-05-21T14:50:43.716Z,100371.89
2023-05-21T14:53:12.512Z,100373.45
2023-05-21T14:55:41.157Z,100373.36
2023-05-21T14:58:09.845Z,100366.39
2023-05-21T15:00:38.752Z,100364.27
2023-05-21T15:03:10.179Z,100362.95
2023-05-21T15:05:39.249Z,100362.85
2023-05-21T15:08:09.631Z,100365.44
2023-05-21T15:10:38.186Z,100362.64
2023-05-21T15:13:06.603Z,100359.63
2023-05-21T15:15:38.091Z,100361.88
2023-05-21T15:18:06.830Z,100362.14
2023-05-21T15:20:35.356Z,100363.92
2023-05-21T15:23:16.204Z,100366.05
2023-05-21T15:25:46.019Z,100362.81
2023-05-21T15:28:14.610Z,100361.92
2023-05-21T15:30:43.087Z,100362.28
2023-05-21T15:33:11.974Z,100360.08
2023-05-21T15:35:41.076Z,100356.67
2023-05-21T15:38:10.075Z,100361.42
2023-05-21T15:40:42.371Z,100361.41
2023-05-21T15:43:10.916Z,100356.36
2023-05-21T15:45:39.599Z,100353.15
2023-05-21T15:48:08.458Z,100350.02
2023-05-21T15:50:38.256Z,100350.21
2023-05-21T15:53:06.770Z,100351.17
2023-05-21T15:55:35.270Z,100350.87
2023-05-21T15:58:04.078Z,100354.48
2023-05-21T16:00:32.501Z,100357.98
2023-05-21T16:03:01.028Z,100359.83
2023-05-21T16:05:29.786Z,100360.63
2023-05-21T16:07:58.215Z,100361.96
2023-05-21T16:10:26.613Z,100364.31
2023-05-21T16:12:55.028Z,100363.40
2023-05-21T16:15:23.465Z,100363.55
2023-05-21T16:17:51.879Z,100364.56
2023-05-21T16:20:21.825Z,100368.10
2023-05-21T16:22:50.453Z,100369.44
2023-05-21T16:25:19.055Z,100371.09
2023-05-21T16:27:48.968Z,100366.67
2023-05-21T16:30:17.555Z,100358.63
2023-05-21T16:32:46.109Z,100358.63
2023-05-21T16:35:14.640Z,100356.16
2023-05-21T16:37:43.039Z,100354.09
2023-05-21T16:40:13.821Z,100349.17
2023-05-21T16:42:43.381Z,100347.84
2023-05-21T16:45:19.848Z,100347.77
2023-05-21T16:47:50.200Z,100341.44
2023-05-21T16:50:20.003Z,100347.67
2023-05-21T16:52:48.404Z,100345.66
2023-05-21T16:55:16.967Z,100346.56
2023-05-21T16:57:46.098Z,100344.44
2023-05-21T17:00:15.080Z,100343.88
2023-05-21T17:02:43.581Z,100342.17
2023-05-21T17:05:12.216Z,100342.80
2023-05-21T17:07:40.751Z,100343.80
2023-05-21T17:10:09.795Z,100348.13
2023-05-21T17:12:38.238Z,100348.24
2023-05-21T17:15:07.730Z,100349.17
2023-05-21T17:17:36.158Z,100352.96
2023-05-21T17:20:05.210Z,100355.14
2023-05-21T17:22:33.629Z,100353.61
2023-05-21T17:25:02.701Z,100356.61
2023-05-21T17:27:31.167Z,100361.92
2023-05-21T17:29:59.671Z,100363.16
2023-05-21T17:32:28.097Z,100361.38
2023-05-21T17:34:56.437Z,100359.80
2023-05-21T17:37:24.869Z,100364.12
2023-05-21T17:39:53.279Z,100363.58
2023-05-21T17:42:21.695Z,100362.44
2023-05-21T17:44:50.086Z,100358.13
2023-05-21T17:47:18.529Z,100356.97
2023-05-21T17:49:47.003Z,100356.83
2023-05-21T17:52:15.618Z,100355.88
2023-05-21T17:54:46.685Z,100357.08
2023-05-21T17:57:16.137Z,100354.06
2023-05-21T17:59:45.570Z,100355.36
2023-05-21T18:02:14.018Z,100352.77
2023-05-21T18:04:42.448Z,100354.28
2023-05-21T18:07:11.045Z,100354.58
2023-05-21T18:09:39.456Z,100359.05
2023-05-21T18:12:07.974Z,100358.51
2023-05-21T18:14:36.438Z,100358.65
2023-05-21T18:17:06.028Z,100356.49
2023-05-21T18:19:34.554Z,100356.19
2023-05-21T18:22:04.443Z,100359.96
2023-05-21T18:24:32.859Z,100364.06
2023-05-21T18:27:01.280Z,100364.15
2023-05-21T18:29:29.698Z,100365.13
2023-05-21T18:31:58.108Z,100366.23
2023-05-21T18:34:26.476Z,100370.91
2023-05-21T18:36:54.930Z,100372.02
2023-05-21T18:39:24.822Z,100371.17
2023-05-21T18:42:11.471Z,100372.25
2023-05-21T18:44:41.186Z,100374.91
2023-05-21T18:47:09.604Z,100376.02
2023-05-21T18:49:38.086Z,100378.11
2023-05-21T18:52:07.689Z,100378.66
2023-05-21T18:54:36.373Z,100380.58
2023-05-21T18:57:05.099Z,100384.05
2023-05-21T18:59:33.645Z,100388.30
2023-05-21T19:02:04.569Z,100386.09
2023-05-21T19:04:33.341Z,100386.47
2023-05-21T19:07:03.047Z,100389.22
2023-05-21T19:09:31.511Z,100387.64
2023-05-21T19:12:01.034Z,100387.88
2023-05-21T19:14:29.549Z,100387.92
2023-05-21T19:16:58.061Z,100388.98
2023-05-21T19:19:26.783Z,100389.44
2023-05-21T19:21:55.259Z,100388.63
2023-05-21T19:24:23.742Z,100391.69
2023-05-21T19:26:52.156Z,100392.83
2023-05-21T19:29:21.612Z,100396.19
2023-05-21T19:31:50.075Z,100396.16
2023-05-21T19:34:18.826Z,100393.66
2023-05-21T19:36:53.443Z,100396.34
2023-05-21T19:39:22.365Z,100394.45
2023-05-21T19:41:52.873Z,100390.45
2023-05-21T19:44:21.469Z,100389.45
2023-05-21T19:46:50.155Z,100388.88
2023-05-21T19:49:20.043Z,100387.19
2023-05-21T19:51:49.625Z,100386.27
2023-05-21T19:54:18.745Z,100384.83
2023-05-21T19:56:47.316Z,100387.30
2023-05-21T19:59:15.866Z,100389.08
2023-05-21T20:01:44.867Z,100391.37
2023-05-21T20:04:14.047Z,100393.23
2023-05-21T20:06:42.561Z,100385.98
2023-05-21T20:09:13.213Z,100383.39
2023-05-21T20:11:42.447Z,100384.20
2023-05-21T20:14:11.213Z,100382.43
2023-05-21T20:16:39.661Z,100382.55
2023-05-21T20:19:10.924Z,100381.21
2023-05-21T20:21:39.415Z,100380.55
2023-05-21T20:24:08.723Z,100374.20
2023-05-21T20:26:37.238Z,100374.95
2023-05-21T20:29:07.042Z,100374.09
2023-05-21T20:31:36.011Z,100376.23
2023-05-21T20:34:09.114Z,100374.30
2023-05-21T20:36:40.472Z,100374.75
2023-05-21T20:39:09.260Z,100372.24
2023-05-21T20:41:38.779Z,100369.02
2023-05-21T20:44:07.317Z,100371.23
2023-05-21T20:46:41.278Z,100369.20
2023-05-21T20:49:09.939Z,100369.13
2023-05-21T20:51:38.383Z,100368.73
2023-05-21T20:54:07.621Z,100366.73
2023-05-21T20:56:42.338Z,100371.70
2023-05-21T20:59:12.199Z,100372.05
2023-05-21T21:01:41.614Z,100369.93
2023-05-21T21:04:10.443Z,100375.74
2023-05-21T21:06:40.437Z,100376.94
2023-05-21T21:09:09.006Z,100374.58
2023-05-21T21:11:37.661Z,100373.41
2023-05-21T21:14:06.049Z,100377.27
2023-05-21T21:16:34.631Z,100375.77
2023-05-21T21:19:03.388Z,100373.77
2023-05-21T21:21:32.280Z,100373.16
2023-05-21T21:24:00.993Z,100377.43
2023-05-21T21:26:29.428Z,100376.30
2023-05-21T21:28:59.468Z,100377.98
2023-05-21T21:31:29.632Z,100380.06
2023-05-21T21:33:58.199Z,100385.19
2023-05-21T21:36:28.906Z,100387.01
2023-05-21T21:38:57.547Z,100386.15
2023-05-21T21:41:26.411Z,100385.11
2023-05-21T21:43:54.960Z,100386.52
2023-05-21T21:46:25.670Z,100379.72
2023-05-21T21:48:54.221Z,100383.69
2023-05-21T21:51:23.622Z,100387.11
2023-05-21T21:53:52.244Z,100386.08
2023-05-21T21:56:20.964Z,100388.58
2023-05-21T21:58:49.343Z,100389.58
2023-05-21T22:01:17.980Z,100391.63
2023-05-21T22:03:46.470Z,100392.37
2023-05-21T22:06:14.964Z,100391.86
2023-05-21T22:08:43.534Z,100394.58
2023-05-21T22:11:12.367Z,100393.60
2023-05-21T22:13:41.908Z,100394.94
2023-05-21T22:16:11.950Z,100396.66
2023-05-21T22:18:42.024Z,100395.58
2023-05-21T22:21:14.251Z,100400.38
2023-05-21T22:23:42.992Z,100402.08
2023-05-21T22:26:11.425Z,100400.70
2023-05-21T22:28:39.941Z,100399.05
2023-05-21T22:31:08.349Z,100400.27
2023-05-21T22:33:37.217Z,100398.81
2023-05-21T22:36:06.247Z,100398.01
2023-05-21T22:38:34.873Z,100402.70
2023-05-21T22:41:03.843Z,100405.56
2023-05-21T22:43:34.867Z,100407.24
2023-05-21T22:46:03.634Z,100403.00
2023-05-21T22:48:32.154Z,100404.25
2023-05-21T22:51:02.000Z,100403.88
2023-05-21T22:53:32.193Z,100403.57
2023-05-21T22:56:01.140Z,100403.05
2023-05-21T22:58:29.562Z,100399.58
2023-05-21T23:00:58.018Z,100394.66
2023-05-21T23:03:26.814Z,100396.02
2023-05-21T23:05:55.295Z,100399.85
2023-05-21T23:08:23.772Z,100397.96
2023-05-21T23:10:52.268Z,100402.14
2023-05-21T23:13:20.789Z,100403.84
2023-05-21T23:15:50.795Z,100405.88
2023-05-21T23:18:19.759Z,100405.71
2023-05-21T23:20:48.338Z,100404.48
2023-05-21T23:23:17.104Z,100400.95
2023-05-21T23:25:45.641Z,100398.53
2023-05-21T23:28:14.044Z,100395.77
2023-05-21T23:30:42.485Z,100394.71
2023-05-21T23:33:10.973Z,100399.02
2023-05-21T23:35:39.591Z,100394.51
2023-05-21T23:38:08.082Z,100389.83
2023-05-21T23:40:37.202Z,100392.77
2023-05-21T23:43:06.054Z,100386.92
2023-05-21T23:45:34.607Z,100388.48
2023-05-21T23:48:03.327Z,100384.96
2023-05-21T23:50:31.800Z,100382.73
2023-05-21T23:53:00.408Z,100378.33
2023-05-21T23:55:28.823Z,100380.30
2023-05-21T23:57:57.191Z,100380.42
